Indianapolis, Indiana
Traffic Map
Current Weather Conditions
Indianapolis, Indiana
Broken Clouds
Broken Clouds
45°
Feels Like: 40°
Wind Chill: 40° Ceiling: 14000
Heat Index: 45° Visibility: 10mi
Dew Point: 41° Wind: 10mph
Humidity: 86% Direction: 120° (ESE)
Pressure: 30.12in Gusts: 0mph
Raw Report DataKIND 280354Z 12009KT 10SM FEW042 BKN140 07/05 A3012 RMK AO2 SLP202 T00720050 $
Traffic Incident Summary
Active as of:
Severity:
Category:
InformationThere was an issue retrieving the traffic information for this location. Please try a different location or try again shortly.
Advertisements
Track Severe Weather on mobile